Time;durP1;ratioP1;P1;durP2;ratioP2;P2;SDS_P1;SDS_P2;PMS_P1;PMS_P2;Temp;Humidity;BMP_temperature;BMP_pressure;BME280_temperature;BME280_humidity;BME280_pressure;Samples;Min_cycle;Max_cycle;Signal;HPM_P1;HPM_P2
2023/09/18 00:00:56;;;;;;;6.18;3.55;;;;;;;22.43;61.49;101270.16;5034438;28;20061;-50
2023/09/18 00:03:24;;;;;;;4.97;3.40;;;;;;;22.50;61.04;101278.88;5034354;28;20104;-46
2023/09/18 00:05:51;;;;;;;4.75;3.65;;;;;;;22.33;61.16;101269.09;5034442;28;20033;-47
2023/09/18 00:08:22;;;;;;;5.50;3.67;;;;;;;22.33;61.43;101271.00;5050120;28;20029;-45
2023/09/18 00:10:52;;;;;;;5.30;4.10;;;;;;;22.11;62.79;101274.81;5034797;28;20048;-45
2023/09/18 00:13:19;;;;;;;4.75;3.60;;;;;;;22.18;62.97;101271.81;5034757;28;20021;-46
2023/09/18 00:15:46;;;;;;;6.38;4.10;;;;;;;22.23;63.07;101277.28;5033871;28;20389;-45
2023/09/18 00:18:17;;;;;;;6.07;4.10;;;;;;;21.96;63.53;101271.22;5034157;28;20493;-45
2023/09/18 00:20:45;;;;;;;6.93;3.72;;;;;;;21.88;63.49;101281.59;5034148;28;20466;-45
2023/09/18 00:23:11;;;;;;;5.22;3.90;;;;;;;21.90;64.25;101277.78;5034236;28;20084;-45
2023/09/18 00:25:40;;;;;;;4.32;3.92;;;;;;;21.73;64.32;101272.56;5034384;28;20039;-43
2023/09/18 00:28:07;;;;;;;4.68;3.70;;;;;;;21.62;64.85;101269.00;5034233;28;20029;-43
2023/09/18 00:30:33;;;;;;;6.35;3.50;;;;;;;21.59;65.36;101275.78;5034195;28;20111;-43
2023/09/18 00:32:59;;;;;;;6.07;4.50;;;;;;;21.53;65.29;101276.06;5034192;28;20433;-46
2023/09/18 00:35:26;;;;;;;4.85;3.83;;;;;;;21.42;65.58;101271.66;5033693;28;20535;-44
2023/09/18 00:37:52;;;;;;;4.40;3.47;;;;;;;21.41;65.36;101267.31;5033832;28;20061;-45
2023/09/18 00:40:19;;;;;;;5.43;4.25;;;;;;;21.28;66.13;101274.88;5033920;28;20032;-45
2023/09/18 00:42:46;;;;;;;7.45;3.85;;;;;;;21.23;66.58;101272.13;5034121;28;20469;-46
2023/09/18 00:45:12;;;;;;;4.85;3.90;;;;;;;21.12;67.21;101264.19;5033806;28;20029;-44
2023/09/18 00:47:38;;;;;;;5.80;3.95;;;;;;;21.15;66.62;101267.19;5033764;28;20025;-44
2023/09/18 00:50:07;;;;;;;5.85;3.90;;;;;;;20.97;67.10;101265.75;5033677;28;20030;-45
2023/09/18 00:52:34;;;;;;;4.53;3.63;;;;;;;20.93;67.35;101269.25;5033609;28;20025;-46
2023/09/18 00:55:01;;;;;;;5.80;4.10;;;;;;;20.95;67.27;101273.38;5033533;28;20478;-44
2023/09/18 00:57:29;;;;;;;5.85;4.32;;;;;;;20.87;68.24;101270.31;5033329;28;20036;-47
2023/09/18 00:59:55;;;;;;;4.85;4.10;;;;;;;20.75;68.63;101276.78;5033474;28;20056;-44
2023/09/18 01:02:21;;;;;;;4.55;4.15;;;;;;;20.72;68.34;101279.25;5033358;28;20032;-44
2023/09/18 01:04:49;;;;;;;4.50;3.80;;;;;;;20.78;68.46;101272.75;5033395;28;20044;-46
2023/09/18 01:07:16;;;;;;;4.38;3.80;;;;;;;20.68;68.95;101269.97;5033407;28;20030;-44
2023/09/18 01:09:45;;;;;;;4.38;3.90;;;;;;;20.61;69.07;101272.91;5033314;28;20032;-46
2023/09/18 01:12:14;;;;;;;5.05;4.40;;;;;;;20.59;69.63;101275.06;5033280;28;20029;-44
2023/09/18 01:15:06;;;;;;;4.88;4.38;;;;;;;20.48;69.83;101276.06;5033263;28;20084;-44
2023/09/18 01:17:40;;;;;;;6.72;5.00;;;;;;;20.42;70.08;101272.47;5033250;28;20039;-44
2023/09/18 01:20:10;;;;;;;7.05;4.97;;;;;;;20.52;69.52;101277.19;5031427;28;20029;-48
2023/09/18 01:22:36;;;;;;;5.32;4.40;;;;;;;20.38;70.53;101281.44;5033230;28;20462;-46
2023/09/18 01:25:03;;;;;;;6.97;5.50;;;;;;;20.27;71.01;101275.09;5033111;28;20033;-45
2023/09/18 01:27:29;;;;;;;8.13;5.47;;;;;;;20.26;70.90;101276.97;5033361;28;20065;-45
2023/09/18 01:29:56;;;;;;;7.05;4.82;;;;;;;20.14;71.27;101273.59;5033036;28;20026;-44
2023/09/18 01:32:26;;;;;;;7.95;5.13;;;;;;;20.20;71.33;101279.91;5033010;28;20076;-45
2023/09/18 01:34:55;;;;;;;6.43;5.45;;;;;;;20.00;71.86;101288.72;5032985;28;20056;-45
2023/09/18 01:37:28;;;;;;;5.40;4.43;;;;;;;20.10;71.66;101286.09;5032347;28;20050;-47
2023/09/18 01:39:57;;;;;;;5.72;4.60;;;;;;;20.05;72.25;101286.06;5033257;28;20080;-45
2023/09/18 01:42:24;;;;;;;6.32;5.13;;;;;;;19.98;72.72;101293.56;5032872;28;20017;-45
2023/09/18 01:44:52;;;;;;;6.13;5.53;;;;;;;19.88;72.88;101293.50;5033151;28;20051;-45
2023/09/18 01:47:20;;;;;;;6.00;5.40;;;;;;;19.85;72.75;101294.00;5032874;28;20478;-45
2023/09/18 01:49:46;;;;;;;7.28;6.00;;;;;;;19.60;73.82;101294.53;5032851;28;20505;-45
2023/09/18 01:52:13;;;;;;;8.23;5.72;;;;;;;19.53;73.84;101292.81;5032725;28;20037;-47
2023/09/18 01:54:39;;;;;;;8.18;5.82;;;;;;;19.51;74.95;101302.31;5032749;28;20036;-47
2023/09/18 01:57:07;;;;;;;6.93;5.40;;;;;;;19.50;74.25;101309.63;5032706;28;20430;-45
2023/09/18 01:59:34;;;;;;;6.75;5.22;;;;;;;19.53;74.83;101306.38;5032648;28;20496;-44
2023/09/18 02:02:03;;;;;;;5.82;5.22;;;;;;;19.41;75.26;101305.72;5032706;28;20160;-45
2023/09/18 02:04:30;;;;;;;11.20;5.43;;;;;;;19.51;75.06;101311.25;5032622;28;20163;-45
2023/09/18 02:06:57;;;;;;;6.05;5.45;;;;;;;19.42;75.48;101311.97;5032587;28;20446;-44
2023/09/18 02:09:23;;;;;;;7.82;6.07;;;;;;;19.35;75.98;101316.75;5032527;28;20052;-44
2023/09/18 02:11:49;;;;;;;7.97;5.40;;;;;;;19.24;75.58;101324.78;5032521;28;20104;-44
2023/09/18 02:14:15;;;;;;;7.25;5.60;;;;;;;19.18;76.15;101324.97;5032636;28;20022;-44
2023/09/18 02:16:43;;;;;;;6.47;5.75;;;;;;;19.19;76.31;101322.00;5032274;28;20052;-44
2023/09/18 02:19:10;;;;;;;6.18;5.47;;;;;;;19.21;76.07;101313.59;5032316;28;20025;-47
2023/09/18 02:21:37;;;;;;;7.15;5.82;;;;;;;19.12;76.71;101315.94;5032558;28;20469;-45
2023/09/18 02:24:04;;;;;;;9.38;5.85;;;;;;;19.18;76.65;101317.66;5032294;28;20512;-46
2023/09/18 02:26:30;;;;;;;7.18;5.50;;;;;;;19.11;77.08;101319.72;5032418;28;20095;-44
2023/09/18 02:29:00;;;;;;;6.90;6.20;;;;;;;19.03;77.35;101322.84;5032433;28;20049;-42
2023/09/18 02:31:27;;;;;;;7.18;6.03;;;;;;;19.08;77.12;101325.66;5032362;28;20022;-44
2023/09/18 02:33:53;;;;;;;6.88;6.18;;;;;;;19.01;77.39;101319.59;5032451;28;20025;-43
2023/09/18 02:36:19;;;;;;;6.28;5.45;;;;;;;19.12;77.81;101328.69;5032502;28;20053;-44
2023/09/18 02:38:46;;;;;;;7.82;6.18;;;;;;;19.06;77.91;101330.50;5032323;28;20053;-46
2023/09/18 02:41:12;;;;;;;10.10;6.85;;;;;;;18.98;78.16;101328.22;5032272;28;20013;-44
2023/09/18 02:43:38;;;;;;;8.15;6.32;;;;;;;18.92;78.69;101327.31;5032140;28;20037;-44
2023/09/18 02:46:05;;;;;;;9.55;6.18;;;;;;;19.07;77.79;101331.34;5032304;28;20029;-44
2023/09/18 02:48:32;;;;;;;8.45;7.60;;;;;;;18.92;78.88;101330.03;5033747;28;20029;-44
2023/09/18 02:51:02;;;;;;;8.60;6.88;;;;;;;19.01;78.37;101330.44;5035832;28;20033;-44
2023/09/18 02:53:32;;;;;;;9.23;6.43;;;;;;;18.97;78.42;101330.09;5036010;28;20339;-43
2023/09/18 02:55:59;;;;;;;9.32;6.53;;;;;;;19.00;78.42;101336.94;5035623;28;20029;-46
2023/09/18 02:58:29;;;;;;;6.57;5.88;;;;;;;18.87;78.49;101335.38;5035855;28;20025;-42
2023/09/18 03:00:59;;;;;;;6.97;5.18;;;;;;;18.94;78.49;101341.47;5035957;28;20478;-43
2023/09/18 03:03:26;;;;;;;7.60;5.25;;;;;;;18.84;79.32;101341.31;5035745;28;20447;-46
2023/09/18 03:05:53;;;;;;;6.10;5.38;;;;;;;18.95;78.34;101342.28;5035706;28;20048;-44
2023/09/18 03:08:19;;;;;;;9.23;6.50;;;;;;;18.91;78.53;101341.97;5035186;28;20032;-44
2023/09/18 03:10:45;;;;;;;7.28;6.22;;;;;;;18.97;78.48;101337.44;5035396;28;20034;-43
2023/09/18 03:13:15;;;;;;;8.00;6.00;;;;;;;18.90;78.30;101340.31;5050666;28;20073;-42
2023/09/18 03:15:46;;;;;;;7.18;5.22;;;;;;;18.94;78.68;101344.19;5035260;28;20108;-42
2023/09/18 03:18:13;;;;;;;6.75;4.88;;;;;;;19.00;78.26;101345.06;5035939;28;20061;-43
2023/09/18 03:20:39;;;;;;;7.53;5.65;;;;;;;19.02;78.40;101353.78;5035485;28;20025;-43
2023/09/18 03:23:05;;;;;;;5.88;5.25;;;;;;;18.87;78.95;101353.56;5035319;28;20042;-42
2023/09/18 03:25:31;;;;;;;7.85;5.65;;;;;;;18.83;79.12;101355.13;5035287;28;20033;-42
2023/09/18 03:27:58;;;;;;;5.40;4.90;;;;;;;18.84;79.06;101356.78;5035118;28;20482;-43
2023/09/18 03:30:25;;;;;;;6.32;5.72;;;;;;;18.97;79.39;101359.13;5035001;28;20029;-42
2023/09/18 03:32:53;;;;;;;6.13;5.03;;;;;;;18.79;80.01;101365.66;5035137;28;20041;-43
2023/09/18 03:35:20;;;;;;;6.55;5.50;;;;;;;18.88;79.39;101364.16;5034898;28;20029;-43
2023/09/18 03:37:51;;;;;;;7.88;5.53;;;;;;;18.83;79.67;101371.41;5034936;28;20478;-45
2023/09/18 03:40:18;;;;;;;7.25;5.57;;;;;;;18.84;79.45;101370.34;5034997;28;20029;-44
2023/09/18 03:42:45;;;;;;;5.85;5.22;;;;;;;18.79;79.62;101373.78;5035019;28;20047;-42
2023/09/18 03:45:12;;;;;;;8.73;6.05;;;;;;;18.79;80.25;101370.25;5034876;28;20055;-43
2023/09/18 03:47:40;;;;;;;6.45;5.50;;;;;;;18.80;80.30;101371.91;5034689;28;20466;-42
2023/09/18 03:50:10;;;;;;;6.30;5.40;;;;;;;18.84;80.06;101373.88;5034613;28;20465;-42
2023/09/18 03:52:38;;;;;;;6.90;6.05;;;;;;;18.81;80.27;101370.81;5034526;28;20033;-43
2023/09/18 03:55:06;;;;;;;6.75;5.53;;;;;;;18.67;80.61;101373.88;5035473;28;20025;-44
2023/09/18 03:57:32;;;;;;;5.85;5.22;;;;;;;18.64;80.76;101374.31;5034503;28;20036;-43
2023/09/18 03:59:58;;;;;;;7.50;6.22;;;;;;;18.69;80.71;101373.63;5034078;28;20033;-43
2023/09/18 04:02:26;;;;;;;5.70;5.07;;;;;;;18.71;80.23;101375.03;5034404;28;20025;-43
2023/09/18 04:04:54;;;;;;;5.95;5.20;;;;;;;18.60;80.80;101377.78;5034374;28;20037;-43
2023/09/18 04:07:21;;;;;;;5.82;4.53;;;;;;;18.70;80.01;101373.38;5034460;28;20163;-43
2023/09/18 04:09:47;;;;;;;6.38;4.75;;;;;;;18.69;79.47;101374.44;5034673;28;20029;-43
2023/09/18 04:12:14;;;;;;;6.00;5.28;;;;;;;18.76;79.43;101378.88;5034947;28;20025;-44
2023/09/18 04:14:40;;;;;;;8.18;5.20;;;;;;;18.58;80.32;101383.44;5034094;28;20021;-45
2023/09/18 04:17:06;;;;;;;5.90;5.28;;;;;;;18.45;81.09;101381.88;5049385;28;20116;-43
2023/09/18 04:19:33;;;;;;;5.85;4.97;;;;;;;18.53;81.16;101390.66;5033998;28;20022;-43
2023/09/18 04:21:59;;;;;;;8.13;5.40;;;;;;;18.45;81.66;101389.19;5034126;28;20034;-44
2023/09/18 04:24:26;;;;;;;7.80;5.32;;;;;;;18.45;82.07;101391.91;5034038;28;20115;-44
2023/09/18 04:26:53;;;;;;;7.53;5.53;;;;;;;18.30;82.32;101394.34;5033682;28;20029;-44
2023/09/18 04:29:19;;;;;;;7.85;5.78;;;;;;;18.29;82.69;101398.13;5033990;28;20025;-41
2023/09/18 04:31:46;;;;;;;7.25;5.55;;;;;;;18.17;82.97;101390.06;5034069;28;20091;-42
2023/09/18 04:34:13;;;;;;;7.15;5.45;;;;;;;18.28;83.43;101391.88;5033872;28;20049;-43
2023/09/18 04:36:39;;;;;;;6.25;5.28;;;;;;;18.25;83.09;101395.06;5033517;28;20045;-44
2023/09/18 04:39:06;;;;;;;8.27;6.03;;;;;;;18.31;82.41;101395.97;5033869;28;20025;-42
2023/09/18 04:41:33;;;;;;;11.00;5.80;;;;;;;18.26;83.36;101388.56;5033903;28;20029;-44
2023/09/18 04:43:59;;;;;;;8.40;6.07;;;;;;;18.24;83.29;101387.19;5033846;28;20440;-43
2023/09/18 04:46:26;;;;;;;6.97;5.35;;;;;;;18.24;83.65;101387.19;5033711;28;20033;-44
2023/09/18 04:48:52;;;;;;;6.75;6.05;;;;;;;18.27;83.13;101392.97;5033850;28;20037;-44
2023/09/18 04:51:18;;;;;;;6.18;5.47;;;;;;;18.20;83.41;101386.84;5034298;28;20017;-43
2023/09/18 04:53:45;;;;;;;6.43;5.75;;;;;;;18.22;83.90;101392.03;5033710;28;20029;-43
2023/09/18 04:56:11;;;;;;;9.20;6.55;;;;;;;18.00;84.87;101395.44;5033749;28;20029;-46
2023/09/18 04:58:38;;;;;;;8.60;6.32;;;;;;;17.92;84.77;101398.50;5033480;28;20036;-45
2023/09/18 05:01:05;;;;;;;7.53;6.82;;;;;;;17.97;85.13;101404.03;5033334;28;20101;-43
2023/09/18 05:03:34;;;;;;;7.63;6.38;;;;;;;17.96;85.09;101396.16;5032314;28;20051;-43
2023/09/18 05:06:00;;;;;;;9.38;6.20;;;;;;;17.85;85.51;101403.25;5033344;28;20021;-42
2023/09/18 05:08:26;;;;;;;7.43;6.38;;;;;;;17.86;85.59;101403.00;5033266;28;20068;-43
2023/09/18 05:10:53;;;;;;;7.75;5.80;;;;;;;17.94;85.71;101396.41;5032643;28;20108;-43
2023/09/18 05:13:19;;;;;;;8.38;6.00;;;;;;;17.86;86.26;101394.06;5033452;28;20025;-42
2023/09/18 05:15:45;;;;;;;11.98;6.50;;;;;;;17.86;86.08;101394.06;5033592;28;20025;-44
2023/09/18 05:18:13;;;;;;;7.13;5.82;;;;;;;17.75;86.59;101400.34;5033395;28;20036;-43
2023/09/18 05:20:40;;;;;;;10.75;6.35;;;;;;;17.79;86.81;101398.81;5033440;28;20168;-43
2023/09/18 05:23:07;;;;;;;6.90;6.00;;;;;;;17.72;87.10;101398.94;5032920;28;20474;-42
2023/09/18 05:25:38;;;;;;;7.38;5.75;;;;;;;17.62;87.13;101398.69;5033201;28;20438;-42
2023/09/18 05:28:05;;;;;;;9.05;6.45;;;;;;;17.80;86.55;101403.16;5033172;28;20099;-46
2023/09/18 05:30:35;;;;;;;8.18;6.53;;;;;;;17.89;86.27;101397.13;5033263;28;20029;-42
2023/09/18 05:33:06;;;;;;;6.85;6.10;;;;;;;17.85;86.46;101397.84;5032956;28;20427;-44
2023/09/18 05:35:37;;;;;;;9.27;6.70;;;;;;;17.74;87.32;101396.81;5032769;28;20032;-44
2023/09/18 05:38:05;;;;;;;6.28;5.53;;;;;;;17.74;86.67;101390.56;5033165;28;20033;-42
2023/09/18 05:40:31;;;;;;;6.78;5.93;;;;;;;17.77;86.84;101382.81;5032843;28;20045;-44
2023/09/18 05:42:58;;;;;;;7.85;6.25;;;;;;;17.59;87.49;101383.75;5032856;28;20025;-44
2023/09/18 05:45:26;;;;;;;9.10;6.97;;;;;;;17.63;87.42;101382.22;5033034;28;20025;-43
2023/09/18 05:48:10;;;;;;;10.48;6.65;;;;;;;17.73;87.29;101387.03;5032904;28;20022;-43
2023/09/18 05:50:37;;;;;;;7.57;6.50;;;;;;;17.61;88.04;101387.06;5032581;28;20022;-41
2023/09/18 05:53:03;;;;;;;7.15;5.80;;;;;;;17.53;88.34;101389.28;5032696;28;20528;-41
2023/09/18 05:55:31;;;;;;;6.55;5.93;;;;;;;17.53;88.62;101398.22;5031605;28;20585;-43
2023/09/18 05:57:58;;;;;;;7.80;5.90;;;;;;;17.59;88.18;101399.16;5032604;28;20025;-41
2023/09/18 06:00:25;;;;;;;6.65;6.00;;;;;;;17.48;88.25;101391.88;5033049;28;20025;-44
2023/09/18 06:02:51;;;;;;;11.93;6.28;;;;;;;17.47;89.11;101396.47;5032636;28;20040;-43
2023/09/18 06:05:21;;;;;;;7.63;5.55;;;;;;;17.54;88.13;101393.63;5032743;28;20018;-45
2023/09/18 06:07:48;;;;;;;8.95;6.82;;;;;;;17.53;88.34;101394.72;5032541;28;20021;-43
2023/09/18 06:10:15;;;;;;;7.57;5.70;;;;;;;17.54;87.86;101389.03;5033004;28;20045;-43
2023/09/18 06:12:41;;;;;;;10.32;6.90;;;;;;;17.48;88.50;101392.72;5033057;28;20037;-42
2023/09/18 06:15:12;;;;;;;8.32;6.05;;;;;;;17.60;87.37;101390.81;5032501;28;20026;-43
2023/09/18 06:17:40;;;;;;;13.13;6.93;;;;;;;17.45;88.32;101390.50;5032190;28;20021;-41
2023/09/18 06:20:11;;;;;;;6.90;5.78;;;;;;;17.46;88.24;101394.84;5032386;28;20029;-41
2023/09/18 06:22:39;;;;;;;8.30;5.90;;;;;;;17.41;88.47;101389.31;5034462;28;20025;-41
2023/09/18 06:25:12;;;;;;;8.40;6.00;;;;;;;17.38;88.77;101400.63;5037101;28;20025;-42
2023/09/18 06:27:39;;;;;;;11.60;7.15;;;;;;;17.39;89.27;101396.88;5036295;28;20029;-41
2023/09/18 06:30:06;;;;;;;8.43;6.93;;;;;;;17.37;89.24;101394.38;5036343;28;20112;-42
2023/09/18 06:32:33;;;;;;;8.95;5.97;;;;;;;17.31;89.48;101391.81;5036228;28;20037;-42
2023/09/18 06:35:00;;;;;;;8.68;6.28;;;;;;;17.42;88.56;101399.91;5035968;28;20173;-41
2023/09/18 06:37:26;;;;;;;8.20;7.10;;;;;;;17.44;88.53;101391.56;5035756;28;20052;-40
2023/09/18 06:39:52;;;;;;;9.30;6.45;;;;;;;17.26;89.69;101392.50;5035990;28;20026;-41
2023/09/18 06:42:19;;;;;;;9.13;6.53;;;;;;;17.30;89.17;101395.56;5036052;28;20105;-41
2023/09/18 06:44:45;;;;;;;8.25;6.72;;;;;;;17.41;89.15;101389.31;5035939;28;20494;-42
2023/09/18 06:47:12;;;;;;;6.25;5.25;;;;;;;17.41;89.06;101387.44;5035839;28;20037;-41
2023/09/18 06:49:38;;;;;;;6.30;5.68;;;;;;;17.42;88.49;101388.25;5035835;28;20104;-42
2023/09/18 06:52:06;;;;;;;8.25;5.72;;;;;;;17.38;88.96;101389.81;5035795;28;20067;-41
2023/09/18 06:54:32;;;;;;;12.05;5.82;;;;;;;17.34;89.53;101391.34;5035661;28;20029;-41
2023/09/18 06:56:58;;;;;;;8.93;5.57;;;;;;;17.40;88.40;101393.91;5035589;28;20075;-42
2023/09/18 06:59:25;;;;;;;7.60;5.63;;;;;;;17.38;88.74;101393.34;5035582;28;20131;-41
2023/09/18 07:01:51;;;;;;;8.40;6.38;;;;;;;17.28;89.45;101401.22;5035600;28;20079;-39
2023/09/18 07:04:17;;;;;;;7.03;6.30;;;;;;;17.19;90.06;101399.94;5035594;28;20033;-40
2023/09/18 07:06:43;;;;;;;6.75;6.05;;;;;;;17.18;90.29;101402.88;5035193;28;20041;-40
2023/09/18 07:09:12;;;;;;;7.70;5.88;;;;;;;17.23;89.37;101403.81;5035419;28;20359;-41
2023/09/18 07:11:38;;;;;;;11.10;5.95;;;;;;;17.30;89.83;101400.97;5035334;28;20414;-41
2023/09/18 07:14:05;;;;;;;10.95;6.05;;;;;;;17.34;89.25;101402.16;5035747;28;20041;-41
2023/09/18 07:16:32;;;;;;;7.32;5.22;;;;;;;17.31;88.96;101410.75;5035242;28;20029;-41
2023/09/18 07:18:58;;;;;;;5.43;4.93;;;;;;;17.32;89.01;101415.94;5035380;28;20037;-40
2023/09/18 07:21:25;;;;;;;7.05;5.75;;;;;;;17.37;89.16;101409.78;5035265;28;20045;-43
2023/09/18 07:23:51;;;;;;;6.82;6.00;;;;;;;17.34;89.56;101407.56;5035157;28;20032;-41
2023/09/18 07:26:17;;;;;;;7.15;5.65;;;;;;;17.34;88.76;101413.00;5035499;28;20037;-42
2023/09/18 07:28:44;;;;;;;7.70;5.43;;;;;;;17.34;89.01;101404.88;5035680;28;20053;-42
2023/09/18 07:31:14;;;;;;;6.28;5.20;;;;;;;17.18;89.69;101409.13;5035128;28;20061;-41
2023/09/18 07:33:44;;;;;;;6.28;5.55;;;;;;;17.26;89.31;101405.22;5034382;28;20025;-41
2023/09/18 07:36:10;;;;;;;6.85;5.57;;;;;;;17.17;89.63;101414.75;5034929;28;20549;-41
2023/09/18 07:38:37;;;;;;;7.47;5.03;;;;;;;17.13;90.06;101415.22;5034980;28;20021;-41
2023/09/18 07:41:04;;;;;;;7.20;6.22;;;;;;;17.19;89.92;101415.34;5035031;28;20029;-41
2023/09/18 07:43:30;;;;;;;6.03;5.35;;;;;;;17.17;89.89;101412.88;5034938;28;20397;-41
2023/09/18 07:45:58;;;;;;;7.05;5.40;;;;;;;17.25;89.92;101415.22;5035177;28;20347;-41
2023/09/18 07:48:24;;;;;;;6.90;5.47;;;;;;;17.09;90.09;101416.75;5034681;28;20095;-41
2023/09/18 07:50:50;;;;;;;8.20;6.13;;;;;;;17.17;89.79;101407.47;5034720;28;20394;-43
2023/09/18 07:53:16;;;;;;;7.72;6.18;;;;;;;17.19;89.79;101409.94;5034743;28;20029;-47
2023/09/18 07:55:43;;;;;;;8.85;5.97;;;;;;;17.13;89.99;101409.00;5034734;28;20477;-42
2023/09/18 07:58:09;;;;;;;6.50;5.63;;;;;;;17.01;90.49;101409.00;5034474;28;20029;-43
2023/09/18 08:00:35;;;;;;;9.73;6.05;;;;;;;17.03;90.04;101406.03;5034826;28;20029;-43
2023/09/18 08:03:02;;;;;;;7.20;5.53;;;;;;;16.94;90.66;101407.47;5034754;28;20025;-43
2023/09/18 08:05:29;;;;;;;9.88;5.82;;;;;;;16.93;90.12;101405.81;5035131;28;20087;-43
2023/09/18 08:07:56;;;;;;;6.93;5.97;;;;;;;16.93;90.27;101400.41;5034511;28;20029;-43
2023/09/18 08:10:23;;;;;;;7.32;5.57;;;;;;;16.88;90.31;101406.53;5034402;28;20380;-44
2023/09/18 08:12:51;;;;;;;8.35;5.70;;;;;;;16.80;90.68;101399.56;5034361;28;20359;-43
2023/09/18 08:15:20;;;;;;;6.70;6.00;;;;;;;16.80;90.81;101406.84;5034420;28;20378;-44
2023/09/18 08:17:49;;;;;;;7.93;5.80;;;;;;;16.83;90.63;101401.00;5034390;28;20075;-42
2023/09/18 08:20:16;;;;;;;8.48;5.95;;;;;;;16.85;91.03;101407.81;5034085;28;20478;-44
2023/09/18 08:22:44;;;;;;;8.43;6.07;;;;;;;16.84;91.00;101405.34;5034226;28;20036;-43
2023/09/18 08:25:12;;;;;;;7.18;5.50;;;;;;;16.82;90.86;101396.63;5034086;28;20031;-43
2023/09/18 08:27:43;;;;;;;7.40;5.63;;;;;;;16.80;90.96;101404.16;5034035;28;20029;-45
2023/09/18 08:30:12;;;;;;;6.63;5.57;;;;;;;16.87;90.70;101402.97;5033908;28;20378;-44
2023/09/18 08:32:39;;;;;;;6.00;5.40;;;;;;;16.83;90.56;101395.59;5033886;28;20052;-43
2023/09/18 08:35:06;;;;;;;7.40;5.47;;;;;;;16.75;91.22;101393.22;5033960;28;20365;-42
2023/09/18 08:37:32;;;;;;;7.13;5.88;;;;;;;16.71;91.10;101390.19;5033554;28;20092;-44
2023/09/18 08:40:00;;;;;;;8.00;6.30;;;;;;;16.68;91.16;101387.06;5033720;28;20060;-43
2023/09/18 08:42:34;;;;;;;6.65;5.72;;;;;;;16.71;90.84;101382.06;5034068;28;20037;-43
2023/09/18 08:45:03;;;;;;;16.13;9.90;;;;;;;16.76;91.01;101397.56;5033221;28;20520;-42
2023/09/18 08:47:31;;;;;;;23.00;11.57;;;;;;;16.74;90.59;101388.88;5033222;28;20113;-43
2023/09/18 08:49:59;;;;;;;16.55;9.88;;;;;;;16.72;90.49;101393.69;5033606;28;20022;-44
2023/09/18 08:52:26;;;;;;;13.95;8.75;;;;;;;16.67;90.40;101385.44;5033832;28;20025;-43
2023/09/18 08:54:56;;;;;;;21.27;11.35;;;;;;;16.70;90.14;101383.06;5033436;28;20470;-42
2023/09/18 08:57:23;;;;;;;28.65;14.10;;;;;;;16.86;89.92;101381.59;5033510;28;20075;-43
2023/09/18 08:59:52;;;;;;;39.13;18.38;;;;;;;16.63;90.51;101385.06;5033541;28;20140;-42
2023/09/18 09:02:19;;;;;;;34.35;16.73;;;;;;;16.68;90.51;101378.97;5033422;28;20033;-44
2023/09/18 09:04:45;;;;;;;32.50;14.68;;;;;;;16.61;90.46;101388.00;5033562;28;20080;-42
2023/09/18 09:07:11;;;;;;;25.85;13.45;;;;;;;16.52;91.05;101388.56;5033363;28;20446;-43
2023/09/18 09:09:38;;;;;;;23.85;11.00;;;;;;;16.51;91.05;101393.16;5033014;28;20095;-43
2023/09/18 09:12:05;;;;;;;25.10;12.48;;;;;;;16.48;91.04;101385.50;5033280;28;20363;-43
2023/09/18 09:14:31;;;;;;;17.25;9.70;;;;;;;16.45;91.06;101391.38;5033167;28;20018;-42
2023/09/18 09:16:57;;;;;;;14.85;9.35;;;;;;;16.37;91.10;101391.69;5033147;28;20021;-43
2023/09/18 09:19:38;;;;;;;16.58;10.18;;;;;;;16.44;91.28;101387.03;5033049;28;20028;-42
2023/09/18 09:22:06;;;;;;;21.38;12.27;;;;;;;16.40;91.63;101372.34;5033246;28;20527;-42
2023/09/18 09:24:43;;;;;;;15.75;10.18;;;;;;;16.32;91.07;101373.50;5033033;28;20397;-42
2023/09/18 09:27:11;;;;;;;15.95;9.70;;;;;;;16.29;91.20;101373.94;5033037;28;20029;-43
2023/09/18 09:29:37;;;;;;;14.27;8.57;;;;;;;16.29;91.42;101382.06;5032874;28;20454;-44
2023/09/18 09:32:14;;;;;;;15.93;10.02;;;;;;;16.29;91.50;101379.34;5033019;28;20074;-42
2023/09/18 09:34:42;;;;;;;17.02;10.32;;;;;;;16.25;91.43;101374.63;5032935;28;20040;-42
2023/09/18 09:37:08;;;;;;;16.40;9.93;;;;;;;16.23;91.71;101379.47;5032437;28;20049;-42
2023/09/18 09:39:34;;;;;;;19.35;11.63;;;;;;;16.18;91.70;101374.75;5032915;28;20037;-42
2023/09/18 09:42:03;;;;;;;59.83;25.90;;;;;;;16.22;91.43;101372.41;5032852;28;20022;-46
2023/09/18 09:44:32;;;;;;;66.65;30.42;;;;;;;16.21;91.82;101373.44;5032898;28;20025;-42
2023/09/18 09:46:59;;;;;;;64.93;30.15;;;;;;;16.15;92.40;101377.88;5032656;28;20029;-42
2023/09/18 09:49:30;;;;;;;58.58;27.13;;;;;;;16.17;92.33;101374.97;5032782;28;20024;-42
2023/09/18 09:51:59;;;;;;;55.20;26.13;;;;;;;16.12;92.12;101377.53;5032626;28;20026;-43
2023/09/18 09:54:36;;;;;;;49.70;25.58;;;;;;;16.10;92.39;101375.91;5032617;28;20404;-42
2023/09/18 09:57:04;;;;;;;51.53;24.77;;;;;;;16.21;92.09;101368.03;5033547;28;20065;-44
2023/09/18 09:59:33;;;;;;;47.20;22.42;;;;;;;16.19;92.32;101368.28;5037235;28;20029;-43
2023/09/18 10:01:59;;;;;;;46.33;22.85;;;;;;;16.25;92.20;101370.06;5036711;28;20036;-43
2023/09/18 10:04:30;;;;;;;34.85;19.13;;;;;;;16.24;92.64;101370.28;5037019;28;20528;-43
2023/09/18 10:07:09;;;;;;;40.70;19.17;;;;;;;16.33;92.96;101358.13;5037143;28;20029;-43
2023/09/18 10:09:39;;;;;;;36.03;17.30;;;;;;;16.39;92.93;101367.16;5036579;28;20449;-43
2023/09/18 10:12:15;;;;;;;28.60;15.05;;;;;;;16.37;92.94;101367.38;5036576;28;20079;-44
2023/09/18 10:14:43;;;;;;;25.50;13.65;;;;;;;16.46;93.25;101370.59;5036610;28;20120;-42
2023/09/18 10:17:19;;;;;;;18.80;11.30;;;;;;;16.69;92.75;101367.91;5036382;28;20474;-42
2023/09/18 10:20:16;;;;;;;17.67;10.95;;;;;;;16.59;93.02;101367.66;5036495;28;20033;-43
2023/09/18 10:22:49;;;;;;;16.13;9.65;;;;;;;16.56;93.12;101371.66;5036419;28;20496;-42
2023/09/18 10:25:23;;;;;;;13.45;9.05;;;;;;;16.57;93.43;101370.59;5036746;28;20062;-43
2023/09/18 10:27:58;;;;;;;10.35;8.25;;;;;;;16.49;93.32;101362.84;5036318;28;20036;-44
2023/09/18 10:30:26;;;;;;;14.80;9.53;;;;;;;16.48;93.02;101361.19;5036489;28;20029;-43
2023/09/18 10:32:53;;;;;;;10.45;7.82;;;;;;;16.45;92.70;101366.25;5036329;28;20029;-43
2023/09/18 10:35:20;;;;;;;14.52;10.00;;;;;;;16.46;92.11;101376.00;5036202;28;20031;-43
2023/09/18 10:37:51;;;;;;;12.18;8.60;;;;;;;16.36;92.48;101366.56;5036012;28;20116;-43
2023/09/18 10:40:18;;;;;;;14.80;9.65;;;;;;;16.38;91.67;101366.34;5036324;28;20022;-43
2023/09/18 10:42:46;;;;;;;13.45;9.15;;;;;;;16.31;92.03;101371.81;5036025;28;20022;-45
2023/09/18 10:45:14;;;;;;;14.32;9.30;;;;;;;16.29;91.84;101367.72;5035998;28;20123;-43
2023/09/18 10:47:47;;;;;;;10.73;7.90;;;;;;;16.29;91.90;101367.72;5035750;28;20539;-43
2023/09/18 10:50:24;;;;;;;9.57;7.10;;;;;;;16.25;91.64;101367.34;5035793;28;20492;-43
2023/09/18 10:52:51;;;;;;;10.43;6.97;;;;;;;16.25;91.56;101361.13;5035725;28;20049;-43
2023/09/18 10:55:17;;;;;;;8.80;7.65;;;;;;;16.23;91.26;101365.94;5035739;28;20030;-43
2023/09/18 10:57:55;;;;;;;11.05;7.03;;;;;;;16.16;91.10;101373.31;5036021;28;20052;-43
2023/09/18 11:00:30;;;;;;;10.38;7.20;;;;;;;16.09;90.64;101371.53;5035628;28;20029;-42
2023/09/18 11:03:19;;;;;;;9.50;7.13;;;;;;;16.07;90.29;101373.66;5035657;28;20029;-43
2023/09/18 11:06:01;;;;;;;9.55;6.90;;;;;;;16.01;90.34;101376.44;5035814;28;20378;-43
2023/09/18 11:08:43;;;;;;;9.20;6.30;;;;;;;16.01;90.28;101371.88;5034294;28;20032;-43
2023/09/18 11:11:12;;;;;;;10.90;6.90;;;;;;;15.99;90.53;101371.28;5035530;28;20025;-43
2023/09/18 11:13:41;;;;;;;8.15;6.43;;;;;;;15.94;89.94;101371.13;5035372;28;20021;-44
2023/09/18 11:16:19;;;;;;;7.75;6.65;;;;;;;15.86;90.58;101363.34;5035417;28;20025;-43
2023/09/18 11:18:52;;;;;;;9.20;6.75;;;;;;;15.88;90.48;101363.97;5035358;28;20428;-43
2023/09/18 11:21:25;;;;;;;9.10;7.25;;;;;;;15.92;89.85;101369.69;5035268;28;20029;-43
2023/09/18 11:24:03;;;;;;;8.90;6.30;;;;;;;15.90;90.08;101367.25;5035340;28;20470;-43
2023/09/18 11:26:37;;;;;;;7.22;6.32;;;;;;;15.94;90.19;101362.22;5035321;28;20059;-43